Time;durP1;ratioP1;P1;durP2;ratioP2;P2;SDS_P1;SDS_P2;PMS_P1;PMS_P2;Temp;Humidity;BMP_temperature;BMP_pressure;BME280_temperature;BME280_humidity;BME280_pressure;Samples;Min_cycle;Max_cycle;Signal;HPM_P1;HPM_P2
2022/09/04 00:01:54;;;;;;;7.75;6.95;;;;;;;17.61;87.22;101285.44;5030226;28;20030;-63
2022/09/04 00:04:43;;;;;;;7.32;6.53;;;;;;;17.60;87.52;101288.91;5030291;28;20045;-64
2022/09/04 00:07:27;;;;;;;8.68;7.25;;;;;;;17.57;87.98;101281.00;5030333;28;20063;-63
2022/09/04 00:09:55;;;;;;;8.68;7.72;;;;;;;17.52;88.58;101291.47;5018564;28;20040;-64
2022/09/04 00:12:28;;;;;;;11.57;7.95;;;;;;;17.49;89.19;101296.66;5029861;28;20052;-63
2022/09/04 00:15:02;;;;;;;8.55;7.75;;;;;;;17.44;89.38;101293.09;5030090;28;20029;-63
2022/09/04 00:17:48;;;;;;;8.43;7.70;;;;;;;17.38;89.48;101294.78;5029703;28;20462;-63
2022/09/04 00:20:19;;;;;;;9.05;7.32;;;;;;;17.36;89.68;101298.28;5029788;28;20033;-64
2022/09/04 00:23:01;;;;;;;8.25;7.45;;;;;;;17.31;89.81;101298.22;5029808;28;20039;-63
2022/09/04 00:26:03;;;;;;;8.10;7.30;;;;;;;17.30;90.16;101298.19;5029674;28;20029;-63
2022/09/04 00:28:32;;;;;;;8.82;7.93;;;;;;;17.26;90.50;101299.91;5029878;28;20043;-64
2022/09/04 00:31:35;;;;;;;9.20;8.30;;;;;;;17.22;90.54;101304.22;5029016;28;20563;-63
2022/09/04 00:34:09;;;;;;;7.63;7.03;;;;;;;17.20;90.91;101303.31;5029470;28;20548;-63
2022/09/04 00:36:39;;;;;;;8.10;7.32;;;;;;;17.18;91.49;101299.81;5029374;28;20033;-64
2022/09/04 00:39:17;;;;;;;9.10;7.83;;;;;;;17.18;91.06;101299.81;5029283;28;20025;-63
2022/09/04 00:41:57;;;;;;;7.63;6.93;;;;;;;17.16;91.67;101299.78;5029073;28;20304;-63
2022/09/04 00:44:42;;;;;;;7.85;7.13;;;;;;;17.16;91.59;101309.41;5029384;28;20117;-63
2022/09/04 00:47:28;;;;;;;7.80;7.10;;;;;;;17.12;92.18;101308.47;5029248;28;20049;-63
2022/09/04 00:50:18;;;;;;;8.13;7.22;;;;;;;17.10;91.82;101310.19;5029153;28;20492;-64
2022/09/04 00:53:05;;;;;;;9.05;7.20;;;;;;;17.09;92.28;101308.41;5029165;28;20446;-64
2022/09/04 00:56:08;;;;;;;8.73;7.72;;;;;;;17.03;92.89;101311.84;5028922;28;20068;-64
2022/09/04 00:58:56;;;;;;;9.45;7.68;;;;;;;16.99;93.46;101312.66;5028950;28;20029;-64
2022/09/04 01:01:24;;;;;;;8.57;7.70;;;;;;;16.96;93.44;101317.84;5029112;28;20884;-64
2022/09/04 01:04:03;;;;;;;9.38;7.53;;;;;;;16.93;93.90;101323.03;5028928;28;20041;-63
2022/09/04 01:07:22;;;;;;;8.95;7.88;;;;;;;16.87;94.29;101321.22;5028193;28;20112;-63
2022/09/04 01:10:07;;;;;;;7.80;7.03;;;;;;;16.79;94.31;101315.88;5000709;28;20029;-64
2022/09/04 01:12:51;;;;;;;8.38;7.57;;;;;;;16.79;94.82;101320.22;5028727;28;20413;-63
2022/09/04 01:15:33;;;;;;;8.32;7.47;;;;;;;16.76;95.54;101330.66;5028662;28;20035;-63
2022/09/04 01:18:13;;;;;;;8.80;7.97;;;;;;;16.72;95.88;101324.50;5028594;28;20079;-63
2022/09/04 01:20:46;;;;;;;9.13;8.23;;;;;;;16.72;96.42;101334.97;5028700;28;20049;-64
2022/09/04 01:23:42;;;;;;;8.90;8.05;;;;;;;16.70;96.44;101336.69;5028346;28;20013;-64
2022/09/04 01:26:26;;;;;;;8.45;7.53;;;;;;;16.68;96.46;101341.00;5029054;28;20064;-64
2022/09/04 01:29:02;;;;;;;8.55;7.75;;;;;;;16.65;96.78;101340.97;5028345;28;20032;-64
2022/09/04 01:31:43;;;;;;;10.32;8.52;;;;;;;16.61;97.54;101342.66;5028928;28;20753;-64
2022/09/04 01:34:38;;;;;;;7.88;7.07;;;;;;;16.56;97.98;101342.59;5029036;28;20030;-65
2022/09/04 01:37:28;;;;;;;9.90;8.07;;;;;;;16.54;97.88;101346.03;5028617;28;20412;-64
2022/09/04 01:40:08;;;;;;;8.73;7.85;;;;;;;16.50;97.39;101350.34;5028249;28;20040;-64
2022/09/04 01:42:53;;;;;;;9.45;7.80;;;;;;;16.50;97.12;101350.34;5028431;28;20625;-65
2022/09/04 01:45:33;;;;;;;7.80;7.20;;;;;;;16.47;97.17;101360.75;5027648;28;20061;-64
2022/09/04 01:48:02;;;;;;;10.32;7.18;;;;;;;16.43;97.75;101358.94;5019329;28;20579;-64
2022/09/04 01:50:31;;;;;;;9.43;7.97;;;;;;;16.40;98.15;101359.78;5028282;28;20493;-64
2022/09/04 01:53:11;;;;;;;9.50;8.27;;;;;;;16.41;98.68;101356.31;5026667;28;20028;-64
2022/09/04 01:55:49;;;;;;;9.77;8.77;;;;;;;16.43;99.04;101359.84;5027538;28;20021;-64
2022/09/04 01:58:34;;;;;;;9.13;8.15;;;;;;;16.40;99.33;101358.91;5027274;28;20037;-65
2022/09/04 02:01:13;;;;;;;9.20;8.35;;;;;;;16.39;100.00;101370.19;5027379;28;20231;-65
2022/09/04 02:03:56;;;;;;;8.80;8.10;;;;;;;16.36;100.00;101372.78;5026964;28;20037;-64
2022/09/04 02:06:40;;;;;;;9.30;8.07;;;;;;;16.31;100.00;101376.22;5027038;28;20060;-64
2022/09/04 02:09:26;;;;;;;10.48;7.32;;;;;;;16.33;100.00;101374.47;5026880;28;20501;-64
2022/09/04 02:12:07;;;;;;;9.48;8.32;;;;;;;16.33;100.00;101369.25;5027179;28;20024;-64
2022/09/04 02:14:41;;;;;;;8.98;7.88;;;;;;;16.33;100.00;101376.22;5026593;28;20072;-64
2022/09/04 02:17:24;;;;;;;8.52;7.82;;;;;;;16.35;100.00;101381.50;5027122;28;20029;-64
2022/09/04 02:20:15;;;;;;;9.35;7.78;;;;;;;16.33;100.00;101384.09;5026933;28;20810;-65
2022/09/04 02:22:47;;;;;;;8.23;7.53;;;;;;;16.31;100.00;101385.78;5026549;28;20029;-64
2022/09/04 02:25:46;;;;;;;9.63;8.55;;;;;;;16.30;100.00;101395.34;5026996;28;20025;-64
2022/09/04 02:28:50;;;;;;;8.25;7.55;;;;;;;16.28;100.00;101389.22;5014839;28;20356;-64
2022/09/04 02:31:31;;;;;;;8.18;7.35;;;;;;;16.27;100.00;101392.69;5026666;28;20230;-64
2022/09/04 02:34:33;;;;;;;9.23;8.37;;;;;;;16.27;100.00;101395.31;5026976;28;20042;-64
2022/09/04 02:37:23;;;;;;;8.80;8.00;;;;;;;16.23;100.00;101398.72;5026805;28;20120;-64
2022/09/04 02:40:14;;;;;;;9.77;8.73;;;;;;;16.20;100.00;101394.34;5026474;28;20044;-64
2022/09/04 02:43:18;;;;;;;9.38;8.45;;;;;;;16.18;100.00;101395.16;5030406;28;20037;-63
2022/09/04 02:46:10;;;;;;;9.23;8.23;;;;;;;16.16;100.00;101397.72;5030456;28;20145;-64
2022/09/04 02:49:06;;;;;;;9.85;8.50;;;;;;;16.15;100.00;101395.09;5030037;28;20021;-63
2022/09/04 02:52:18;;;;;;;9.82;8.55;;;;;;;16.14;100.00;101398.53;5030077;28;20075;-63
2022/09/04 02:54:57;;;;;;;9.45;8.45;;;;;;;16.15;100.00;101406.44;5011831;28;20048;-64
2022/09/04 02:57:57;;;;;;;10.60;8.65;;;;;;;16.16;100.00;101407.31;5030573;28;20469;-64
2022/09/04 03:00:47;;;;;;;9.38;8.48;;;;;;;16.16;100.00;101413.41;5029490;28;20034;-64
2022/09/04 03:03:26;;;;;;;8.43;7.45;;;;;;;16.18;100.00;101410.81;5030180;28;20028;-64
2022/09/04 03:06:14;;;;;;;8.45;7.65;;;;;;;16.22;100.00;101415.28;5030027;28;20025;-63
2022/09/04 03:08:50;;;;;;;8.65;7.82;;;;;;;16.22;100.00;101423.13;5029384;28;20045;-64
2022/09/04 03:11:38;;;;;;;8.25;7.45;;;;;;;16.22;100.00;101422.22;5030019;28;20025;-64
2022/09/04 03:14:17;;;;;;;9.05;8.10;;;;;;;16.18;100.00;101416.06;5000934;28;20114;-64
2022/09/04 03:16:49;;;;;;;8.25;7.45;;;;;;;16.16;100.00;101423.00;5029606;28;20115;-65
2022/09/04 03:19:26;;;;;;;9.27;8.50;;;;;;;16.14;100.00;101414.22;5029354;28;20025;-64
2022/09/04 03:22:17;;;;;;;9.23;8.32;;;;;;;16.14;100.00;101419.47;5030309;28;20389;-64
2022/09/04 03:24:48;;;;;;;10.35;9.35;;;;;;;16.14;100.00;101429.91;5029012;28;20025;-64
2022/09/04 03:27:15;;;;;;;8.82;8.13;;;;;;;16.11;100.00;101425.53;5029692;28;20444;-64
2022/09/04 03:29:40;;;;;;;9.43;8.57;;;;;;;16.12;100.00;101416.81;5029403;28;20025;-64
2022/09/04 03:32:11;;;;;;;9.70;8.90;;;;;;;16.11;100.00;101419.41;5029525;28;20051;-63
2022/09/04 03:34:45;;;;;;;;;;;;;;;16.11;100.00;101416.81;5029758;28;20080;-64
2022/09/04 03:37:22;;;;;;;9.50;8.60;;;;;;;16.10;100.00;101431.59;5029517;28;20428;-64
2022/09/04 03:39:56;;;;;;;11.73;9.50;;;;;;;16.07;100.00;101427.22;5029757;28;20037;-64
2022/09/04 03:42:35;;;;;;;10.93;9.40;;;;;;;16.05;100.00;101426.28;5029194;28;20136;-64
2022/09/04 03:45:00;;;;;;;9.18;8.40;;;;;;;16.04;100.00;101429.78;5028802;28;20021;-64
2022/09/04 03:47:41;;;;;;;11.02;10.13;;;;;;;16.02;100.00;101439.31;5029043;28;20043;-64
2022/09/04 03:50:23;;;;;;;10.20;9.20;;;;;;;15.98;100.00;101434.84;5029440;28;20029;-64
2022/09/04 03:53:04;;;;;;;9.70;8.80;;;;;;;15.96;100.00;101431.31;5017526;28;20025;-64
2022/09/04 03:55:43;;;;;;;10.05;9.23;;;;;;;15.95;100.00;101430.44;5029286;28;20474;-64
2022/09/04 03:58:47;;;;;;;9.80;8.88;;;;;;;15.94;100.00;101436.50;5028965;28;20033;-65
2022/09/04 04:01:26;;;;;;;10.07;9.18;;;;;;;15.93;100.00;101441.72;5005948;28;20067;-64
2022/09/04 04:04:14;;;;;;;10.40;9.38;;;;;;;15.91;100.00;101439.06;5028991;28;20077;-64
2022/09/04 04:06:47;;;;;;;10.13;9.23;;;;;;;15.89;100.00;101446.00;5029135;28;20045;-64
2022/09/04 04:09:34;;;;;;;10.32;9.43;;;;;;;15.87;100.00;101439.84;5028709;28;20441;-65
2022/09/04 04:12:55;;;;;;;10.73;9.63;;;;;;;15.84;100.00;101452.88;5028853;28;20273;-64
2022/09/04 04:15:40;;;;;;;10.25;9.38;;;;;;;15.80;100.00;101454.53;4967254;28;20486;-64
2022/09/04 04:18:31;;;;;;;9.30;8.40;;;;;;;15.77;100.00;101451.88;4967098;28;20376;-64
2022/09/04 04:21:35;;;;;;;9.65;8.75;;;;;;;15.75;100.00;101458.78;5021638;28;20461;-63
2022/09/04 04:24:13;;;;;;;9.75;8.80;;;;;;;15.73;100.00;101460.47;5027842;28;20393;-63
2022/09/04 04:27:07;;;;;;;10.77;9.77;;;;;;;15.71;100.00;101462.19;5028840;28;20063;-63
2022/09/04 04:29:41;;;;;;;9.75;8.95;;;;;;;15.69;100.00;101463.88;5028398;28;20030;-63
2022/09/04 04:32:33;;;;;;;10.85;9.82;;;;;;;15.65;100.00;101465.53;5028448;28;20068;-64
2022/09/04 04:35:11;;;;;;;10.05;9.18;;;;;;;15.61;100.00;101472.44;5028399;28;20025;-63
2022/09/04 04:37:49;;;;;;;9.52;8.68;;;;;;;15.59;100.00;101474.16;5028067;28;20028;-63
2022/09/04 04:40:20;;;;;;;9.98;9.07;;;;;;;15.60;100.00;101473.28;5027384;28;20084;-64
2022/09/04 04:42:54;;;;;;;10.23;9.32;;;;;;;15.58;100.00;101472.38;5026533;28;20045;-64
2022/09/04 04:45:49;;;;;;;10.18;9.18;;;;;;;15.59;100.00;101478.50;5026831;28;20025;-64
2022/09/04 04:48:52;;;;;;;10.98;9.65;;;;;;;15.58;100.00;101485.44;5025719;28;20486;-63
2022/09/04 04:51:30;;;;;;;9.63;8.73;;;;;;;15.59;100.00;101478.50;5026645;28;20029;-64
2022/09/04 04:54:27;;;;;;;10.93;9.75;;;;;;;15.57;100.00;101478.47;5027055;28;20028;-64
2022/09/04 04:57:02;;;;;;;10.35;9.35;;;;;;;15.53;100.00;101479.22;5026848;28;20025;-64
2022/09/04 04:59:46;;;;;;;10.90;9.82;;;;;;;15.53;100.00;101480.94;5027022;28;20414;-63
2022/09/04 05:02:26;;;;;;;10.48;9.35;;;;;;;15.52;100.00;101487.94;5027466;28;20037;-64
2022/09/04 05:05:16;;;;;;;10.93;9.88;;;;;;;15.52;100.00;101487.94;5027324;28;20516;-65
2022/09/04 05:07:59;;;;;;;10.93;9.82;;;;;;;15.50;100.00;101497.47;5027317;28;20083;-64
2022/09/04 05:10:36;;;;;;;10.70;9.80;;;;;;;15.50;100.00;101497.47;5027097;28;20036;-64
2022/09/04 05:13:18;;;;;;;10.57;9.50;;;;;;;15.49;100.00;101503.50;5027556;28;20017;-64
2022/09/04 05:15:51;;;;;;;9.95;9.02;;;;;;;15.50;100.00;101505.28;5027357;28;20354;-64
2022/09/04 05:18:28;;;;;;;11.20;10.15;;;;;;;15.50;100.00;101505.28;5027574;28;20123;-64
2022/09/04 05:21:12;;;;;;;11.43;10.32;;;;;;;15.52;100.00;101514.03;5027264;28;20155;-64
2022/09/04 05:23:53;;;;;;;12.25;10.07;;;;;;;15.54;100.00;101512.31;5027272;28;20500;-64
2022/09/04 05:26:30;;;;;;;11.60;10.40;;;;;;;15.55;100.00;101513.22;5027251;28;20108;-64
2022/09/04 05:28:59;;;;;;;11.95;10.50;;;;;;;15.57;100.00;101512.41;5027207;28;20472;-64
2022/09/04 05:32:03;;;;;;;11.98;10.77;;;;;;;15.60;100.00;101517.69;5027721;28;20537;-64
2022/09/04 05:34:56;;;;;;;12.15;10.95;;;;;;;15.63;100.00;101531.69;5030538;28;20021;-64
2022/09/04 05:37:27;;;;;;;12.02;10.90;;;;;;;15.64;100.00;101528.22;5033452;28;20108;-64
2022/09/04 05:40:13;;;;;;;11.23;10.13;;;;;;;15.67;100.00;101533.53;5026738;28;20025;-64
2022/09/04 05:42:49;;;;;;;11.20;10.27;;;;;;;15.70;100.00;101538.81;5023569;28;20479;-64
2022/09/04 05:45:29;;;;;;;11.25;10.07;;;;;;;15.75;100.00;101547.63;5024895;28;20061;-63
2022/09/04 05:48:15;;;;;;;12.88;10.60;;;;;;;15.78;100.00;101537.22;5024612;28;20057;-64
2022/09/04 05:51:11;;;;;;;13.65;10.85;;;;;;;15.83;100.00;101556.50;5024807;28;20075;-64
2022/09/04 05:54:13;;;;;;;11.40;10.27;;;;;;;15.90;100.00;101554.03;5024591;28;20433;-64
2022/09/04 05:56:47;;;;;;;11.55;10.35;;;;;;;15.97;100.00;101559.41;5035314;28;20037;-64
2022/09/04 05:59:24;;;;;;;12.20;10.93;;;;;;;16.06;100.00;101563.97;5027085;28;20100;-64
2022/09/04 06:02:08;;;;;;;10.73;9.68;;;;;;;16.17;100.00;101565.94;5026585;28;20041;-63
2022/09/04 06:04:56;;;;;;;11.18;10.18;;;;;;;16.28;100.00;101574.00;5027577;28;20029;-64
2022/09/04 06:07:59;;;;;;;12.43;10.20;;;;;;;16.41;100.00;101569.88;5001841;28;20107;-64
2022/09/04 06:10:55;;;;;;;11.75;10.48;;;;;;;16.53;100.00;101570.09;5026872;28;20116;-64
2022/09/04 06:13:52;;;;;;;12.88;10.48;;;;;;;16.63;100.00;101571.19;5026119;28;20037;-64
2022/09/04 06:16:51;;;;;;;10.45;9.48;;;;;;;16.73;100.00;101572.22;5029811;28;20052;-64
2022/09/04 06:19:44;;;;;;;11.00;10.00;;;;;;;16.84;100.00;101579.41;5030331;28;20554;-64
2022/09/04 06:22:38;;;;;;;11.18;10.23;;;;;;;16.97;100.00;101577.84;5030396;28;20033;-64
2022/09/04 06:25:18;;;;;;;10.20;9.20;;;;;;;17.10;100.00;101568.47;5030263;28;20425;-65
2022/09/04 06:27:43;;;;;;;10.93;9.93;;;;;;;17.22;100.00;101584.41;5034263;28;20037;-64
2022/09/04 06:30:14;;;;;;;10.68;9.60;;;;;;;17.35;100.00;101576.75;5029559;28;20074;-63
2022/09/04 06:32:53;;;;;;;10.65;9.60;;;;;;;17.47;100.00;101579.56;5029408;28;20017;-64
2022/09/04 06:35:45;;;;;;;9.65;8.63;;;;;;;17.61;100.00;101576.28;5029042;28;20469;-64
2022/09/04 06:38:37;;;;;;;9.80;8.90;;;;;;;17.74;100.00;101586.06;5028535;28;20075;-65
2022/09/04 06:41:09;;;;;;;10.00;9.00;;;;;;;17.84;100.00;101588.81;5030328;28;20045;-64
2022/09/04 06:43:40;;;;;;;9.48;8.50;;;;;;;17.91;100.00;101588.03;5036713;28;20452;-65
2022/09/04 06:46:22;;;;;;;9.27;8.40;;;;;;;18.03;100.00;101584.69;5021949;28;20042;-64
2022/09/04 06:49:06;;;;;;;9.65;8.70;;;;;;;18.13;100.00;101577.84;5029854;28;20097;-64
2022/09/04 06:51:43;;;;;;;9.07;8.27;;;;;;;18.24;100.00;101589.34;5030236;28;20030;-65
2022/09/04 06:54:20;;;;;;;10.30;9.32;;;;;;;18.32;100.00;101593.81;5029730;28;20442;-64
2022/09/04 06:57:19;;;;;;;9.48;8.60;;;;;;;18.45;100.00;101582.59;5029820;28;20036;-64
2022/09/04 07:00:01;;;;;;;8.77;8.07;;;;;;;18.69;100.00;101591.56;5029082;28;20413;-65
2022/09/04 07:02:39;;;;;;;8.43;7.68;;;;;;;18.91;100.00;101589.16;5027250;28;20447;-64
2022/09/04 07:05:19;;;;;;;9.20;8.27;;;;;;;19.01;100.00;101589.25;5029167;28;20116;-65
2022/09/04 07:07:57;;;;;;;10.52;9.50;;;;;;;19.17;100.00;101591.19;5027877;28;20044;-65
2022/09/04 07:10:27;;;;;;;9.23;8.35;;;;;;;19.38;100.00;101594.81;5029715;28;20096;-65
2022/09/04 07:13:07;;;;;;;9.60;8.60;;;;;;;19.66;100.00;101589.72;5029293;28;20036;-64
2022/09/04 07:15:47;;;;;;;9.25;8.35;;;;;;;19.95;99.96;101595.16;5029632;28;20048;-64
2022/09/04 07:18:34;;;;;;;8.90;8.05;;;;;;;20.21;99.08;101599.66;5023896;28;20506;-64
2022/09/04 07:21:38;;;;;;;8.10;7.50;;;;;;;20.55;96.67;101597.13;5037938;28;20057;-64
2022/09/04 07:24:25;;;;;;;7.80;7.20;;;;;;;20.97;94.12;101599.88;5023201;28;20497;-65
2022/09/04 07:26:59;;;;;;;9.48;7.50;;;;;;;21.26;91.66;101606.00;5028682;28;20049;-64
2022/09/04 07:29:48;;;;;;;7.65;6.88;;;;;;;21.77;89.02;101606.78;5029196;28;20385;-64
2022/09/04 07:32:23;;;;;;;8.23;7.43;;;;;;;22.15;86.22;101612.84;5035391;28;20029;-65
2022/09/04 07:35:02;;;;;;;7.32;6.63;;;;;;;22.52;82.66;101612.63;5028289;28;20374;-65
2022/09/04 07:37:42;;;;;;;8.32;6.95;;;;;;;22.95;81.80;101612.41;5028001;28;20032;-65
2022/09/04 07:40:23;;;;;;;7.45;6.65;;;;;;;23.32;78.82;101624.41;5027547;28;20040;-64
2022/09/04 07:43:02;;;;;;;9.40;8.60;;;;;;;23.43;77.23;101633.16;5028645;28;20037;-65
2022/09/04 07:45:37;;;;;;;8.20;7.38;;;;;;;23.67;76.34;101631.19;5028442;28;20021;-64
2022/09/04 07:48:24;;;;;;;8.05;7.25;;;;;;;24.15;74.08;101624.44;5028390;28;20030;-64
2022/09/04 07:51:09;;;;;;;8.38;7.57;;;;;;;24.41;73.00;101623.22;5026746;28;20029;-66
2022/09/04 07:54:09;;;;;;;10.05;9.05;;;;;;;24.35;70.82;101633.91;5027293;28;20025;-64
2022/09/04 07:57:20;;;;;;;11.02;8.95;;;;;;;23.75;73.37;101634.59;5027695;28;20033;-65
2022/09/04 07:59:51;;;;;;;9.98;8.80;;;;;;;23.67;75.15;101641.75;5013869;28;20520;-64
2022/09/04 08:02:38;;;;;;;11.80;10.60;;;;;;;23.67;74.43;101638.22;5026941;28;20032;-64
2022/09/04 08:05:22;;;;;;;11.50;10.13;;;;;;;24.06;73.07;101633.38;5029081;28;20033;-65
2022/09/04 08:08:16;;;;;;;9.02;8.23;;;;;;;24.46;72.54;101634.66;5029331;28;20063;-65
2022/09/04 08:11:06;;;;;;;9.10;8.27;;;;;;;24.81;70.59;101642.97;5028434;28;20056;-65
2022/09/04 08:13:52;;;;;;;8.73;8.02;;;;;;;25.03;69.61;101647.09;5028724;28;20072;-65
2022/09/04 08:16:29;;;;;;;9.90;8.80;;;;;;;24.89;68.22;101650.81;5028912;28;20030;-66
2022/09/04 08:19:03;;;;;;;8.88;8.07;;;;;;;25.21;68.44;101650.31;5028805;28;20036;-65
2022/09/04 08:21:32;;;;;;;9.52;8.60;;;;;;;25.35;66.77;101645.66;5028782;28;20030;-65
2022/09/04 08:24:35;;;;;;;7.32;6.65;;;;;;;25.69;66.28;101646.00;5028458;28;20036;-65
2022/09/04 08:27:19;;;;;;;8.15;7.45;;;;;;;26.05;64.74;101643.47;5028432;28;20041;-65
2022/09/04 08:29:50;;;;;;;11.38;8.18;;;;;;;26.20;61.92;101652.91;5028272;28;20034;-65
2022/09/04 08:32:42;;;;;;;9.02;8.13;;;;;;;26.20;63.10;101650.25;5028804;28;20461;-65
2022/09/04 08:35:26;;;;;;;9.48;7.50;;;;;;;26.50;62.30;101654.97;5014516;28;20500;-64
2022/09/04 08:38:00;;;;;;;7.32;6.63;;;;;;;26.64;61.31;101656.44;5028737;28;20037;-65
2022/09/04 08:40:52;;;;;;;7.10;6.50;;;;;;;26.86;59.95;101664.75;5028156;28;20013;-65
2022/09/04 08:43:28;;;;;;;8.57;7.53;;;;;;;26.83;59.92;101660.41;5028193;28;20029;-65
2022/09/04 08:46:15;;;;;;;7.10;6.40;;;;;;;26.75;59.20;101670.34;5028088;28;20025;-65
2022/09/04 08:48:52;;;;;;;6.60;6.00;;;;;;;26.58;59.77;101663.66;5027870;28;20036;-65
2022/09/04 08:51:50;;;;;;;7.55;6.93;;;;;;;26.37;60.18;101665.84;5028002;28;20033;-65
2022/09/04 08:54:37;;;;;;;7.32;5.93;;;;;;;26.54;60.59;101669.03;4994358;28;20049;-65
2022/09/04 08:57:16;;;;;;;7.53;5.95;;;;;;;26.78;59.17;101667.63;5027500;28;20029;-65
2022/09/04 08:59:50;;;;;;;5.70;5.20;;;;;;;26.92;58.92;101671.72;5028204;28;20181;-65
2022/09/04 09:02:42;;;;;;;7.15;5.88;;;;;;;26.79;59.41;101677.34;5027622;28;20036;-65
2022/09/04 09:05:41;;;;;;;6.55;4.57;;;;;;;26.95;59.00;101676.97;5027479;28;20439;-65
2022/09/04 09:08:29;;;;;;;4.82;4.03;;;;;;;27.03;57.85;101680.31;5027545;28;20103;-65
2022/09/04 09:11:12;;;;;;;6.38;5.00;;;;;;;27.20;56.81;101679.94;5027800;28;20025;-65
2022/09/04 09:14:16;;;;;;;6.22;4.78;;;;;;;27.13;57.05;101670.34;5027626;28;20528;-65
2022/09/04 09:16:43;;;;;;;4.00;3.65;;;;;;;27.26;56.91;101675.34;4965858;28;20042;-66
2022/09/04 09:19:10;;;;;;;5.38;4.88;;;;;;;26.81;57.09;101674.63;4965848;28;20113;-65
2022/09/04 09:22:06;;;;;;;4.63;3.22;;;;;;;26.74;56.83;101669.47;4992789;28;20087;-66
2022/09/04 09:24:50;;;;;;;3.60;3.30;;;;;;;26.90;57.56;101662.91;5027458;28;20075;-66
2022/09/04 09:27:24;;;;;;;4.20;3.80;;;;;;;26.88;56.93;101659.44;5027250;28;20025;-65
2022/09/04 09:30:06;;;;;;;3.95;3.60;;;;;;;27.04;56.28;101663.47;5027371;28;20555;-65
2022/09/04 09:32:56;;;;;;;3.42;2.63;;;;;;;27.30;56.74;101661.97;5027366;28;20500;-65
2022/09/04 09:35:56;;;;;;;4.28;3.63;;;;;;;27.53;55.38;101663.13;5026971;28;20025;-65
2022/09/04 09:38:40;;;;;;;3.88;2.92;;;;;;;27.57;53.26;101659.50;5027274;28;20029;-65
2022/09/04 09:41:36;;;;;;;5.07;2.95;;;;;;;27.49;54.63;101664.13;5026840;28;20045;-65
2022/09/04 09:44:25;;;;;;;2.70;2.47;;;;;;;27.62;54.79;101667.34;5026914;28;20037;-65
2022/09/04 09:47:15;;;;;;;3.33;2.95;;;;;;;27.68;54.61;101666.28;5027232;28;20496;-65
2022/09/04 09:50:05;;;;;;;3.47;2.55;;;;;;;27.81;54.28;101667.72;5026440;28;20485;-63
2022/09/04 09:52:33;;;;;;;3.00;2.70;;;;;;;27.50;53.76;101668.53;5026969;28;20029;-63
2022/09/04 09:55:02;;;;;;;3.35;2.72;;;;;;;27.65;53.91;101661.91;5027734;28;20032;-64
2022/09/04 09:58:09;;;;;;;3.78;2.50;;;;;;;27.66;53.44;101668.13;5027229;28;20033;-64
2022/09/04 10:01:00;;;;;;;5.35;2.95;;;;;;;27.71;53.57;101676.88;4998132;28;20420;-64
2022/09/04 10:03:38;;;;;;;2.78;2.30;;;;;;;27.69;53.46;101668.03;5003559;28;20042;-64
2022/09/04 10:06:38;;;;;;;3.72;2.58;;;;;;;27.86;53.32;101672.06;5026955;28;20017;-64
2022/09/04 10:09:40;;;;;;;2.60;2.40;;;;;;;27.88;53.00;101672.88;5027104;28;20601;-64
2022/09/04 10:12:12;;;;;;;3.00;2.40;;;;;;;27.73;53.69;101669.72;5027131;28;20029;-66
2022/09/04 10:14:48;;;;;;;4.35;3.75;;;;;;;27.76;52.87;101669.63;5027007;28;20035;-66
2022/09/04 10:17:52;;;;;;;3.40;3.10;;;;;;;27.90;53.79;101665.72;5026783;28;20037;-66
2022/09/04 10:20:40;;;;;;;2.75;2.55;;;;;;;28.09;51.35;101670.50;5026993;28;20032;-66
2022/09/04 10:23:25;;;;;;;2.47;2.00;;;;;;;27.56;51.91;101673.69;5026358;28;20044;-66
2022/09/04 10:26:14;;;;;;;1.77;1.55;;;;;;;27.57;52.22;101680.78;5027092;28;20029;-66
2022/09/04 10:29:18;;;;;;;1.73;1.48;;;;;;;27.73;51.77;101679.50;5027052;28;20040;-66
2022/09/04 10:32:02;;;;;;;2.80;1.30;;;;;;;27.73;50.13;101669.72;5003520;28;20178;-66
2022/09/04 10:34:35;;;;;;;1.98;1.00;;;;;;;27.85;49.36;101672.97;5027018;28;20064;-66
2022/09/04 10:37:18;;;;;;;2.55;0.80;;;;;;;27.54;48.64;101667.53;5026349;28;20474;-66
2022/09/04 10:40:37;;;;;;;1.42;0.88;;;;;;;27.62;48.49;101671.78;5026437;28;20064;-66
2022/09/04 10:43:25;;;;;;;1.52;1.42;;;;;;;27.54;48.36;101672.84;4965231;28;20121;-66
2022/09/04 10:46:16;;;;;;;2.70;1.20;;;;;;;27.61;47.74;101670.03;5026160;28;20155;-66
2022/09/04 10:48:52;;;;;;;2.63;1.30;;;;;;;27.61;47.91;101676.25;5026377;28;20099;-66
2022/09/04 10:51:51;;;;;;;2.47;1.48;;;;;;;27.65;48.39;101680.53;5026611;28;20033;-65
2022/09/04 10:54:35;;;;;;;2.28;1.42;;;;;;;27.80;48.37;101675.75;5026575;28;20028;-65
2022/09/04 10:57:17;;;;;;;1.50;1.40;;;;;;;27.72;45.67;101668.00;5026684;28;20036;-66
2022/09/04 11:00:04;;;;;;;1.30;1.20;;;;;;;27.67;47.51;101672.50;5026841;28;20041;-66
2022/09/04 11:03:01;;;;;;;1.65;1.38;;;;;;;27.98;46.53;101674.38;5028665;28;20068;-66
2022/09/04 11:05:40;;;;;;;2.78;1.33;;;;;;;28.19;46.46;101666.66;5030116;28;20041;-66
2022/09/04 11:08:42;;;;;;;1.05;1.00;;;;;;;28.43;46.75;101664.22;5029863;28;20473;-65
2022/09/04 11:11:14;;;;;;;1.35;1.25;;;;;;;28.59;45.04;101663.72;5029880;28;20025;-66
2022/09/04 11:13:39;;;;;;;1.42;1.25;;;;;;;28.46;44.12;101664.09;5012294;28;20021;-66
2022/09/04 11:16:32;;;;;;;1.63;1.38;;;;;;;28.40;45.03;101664.31;5029730;28;20078;-66
2022/09/04 11:19:19;;;;;;;1.90;1.48;;;;;;;28.50;46.24;101671.09;5029077;28;20374;-66
2022/09/04 11:21:45;;;;;;;1.85;1.38;;;;;;;28.56;44.18;101669.16;5029465;28;20040;-66
2022/09/04 11:24:44;;;;;;;2.83;1.52;;;;;;;27.58;44.12;101666.53;5028239;28;20026;-66
2022/09/04 11:27:28;;;;;;;3.35;1.48;;;;;;;27.57;44.77;101663.94;5029539;28;20029;-66
2022/09/04 11:30:12;;;;;;;4.80;1.80;;;;;;;27.75;45.34;101662.59;5028951;28;20026;-66
2022/09/04 11:33:08;;;;;;;1.73;1.55;;;;;;;27.80;45.02;101660.66;5029103;28;20033;-65
2022/09/04 11:35:36;;;;;;;1.50;1.35;;;;;;;28.02;45.41;101669.81;5029294;28;20112;-66
2022/09/04 11:38:18;;;;;;;2.15;1.58;;;;;;;28.22;44.91;101663.91;5028854;28;20516;-66
2022/09/04 11:41:30;;;;;;;1.98;1.77;;;;;;;28.26;43.28;101668.22;5028872;28;20041;-65
2022/09/04 11:44:44;;;;;;;2.13;1.60;;;;;;;28.27;43.53;101664.66;5029007;28;20021;-65
2022/09/04 11:47:12;;;;;;;1.92;1.70;;;;;;;28.33;43.80;101665.38;4967356;28;20117;-66
2022/09/04 11:50:02;;;;;;;3.30;1.73;;;;;;;28.15;42.57;101670.34;5017821;28;20401;-66
2022/09/04 11:52:39;;;;;;;1.93;1.60;;;;;;;28.11;43.61;101672.22;5028791;28;20060;-66
2022/09/04 11:55:23;;;;;;;3.60;1.85;;;;;;;28.01;42.89;101679.59;5029216;28;20030;-65
2022/09/04 11:58:27;;;;;;;2.10;1.77;;;;;;;28.02;42.65;101670.72;5029132;28;20017;-65
2022/09/04 12:00:57;;;;;;;3.25;2.40;;;;;;;28.11;42.35;101663.34;5029286;28;20113;-66
2022/09/04 12:04:04;;;;;;;4.47;1.80;;;;;;;28.20;41.71;101668.41;5029673;28;20434;-66
2022/09/04 12:06:49;;;;;;;1.88;1.75;;;;;;;27.92;40.92;101663.91;4967325;28;20039;-65
2022/09/04 12:09:39;;;;;;;4.10;1.90;;;;;;;28.04;41.81;101663.56;5026473;28;20561;-64
2022/09/04 12:12:29;;;;;;;2.65;1.80;;;;;;;28.05;40.04;101672.38;5028947;28;20033;-64
2022/09/04 12:14:57;;;;;;;2.25;1.80;;;;;;;27.99;40.66;101676.09;5028930;28;20381;-65
2022/09/04 12:17:58;;;;;;;2.45;1.77;;;;;;;28.13;41.67;101678.38;5028408;28;20029;-64
2022/09/04 12:20:30;;;;;;;;;;;;;;;28.17;40.09;101673.84;5029092;28;20131;-64
2022/09/04 12:23:14;;;;;;;2.20;1.88;;;;;;;28.23;40.93;101678.97;5028448;28;20065;-64
2022/09/04 12:26:16;;;;;;;2.40;1.63;;;;;;;28.34;41.31;101675.09;5029427;28;20557;-65
2022/09/04 12:29:19;;;;;;;3.20;2.03;;;;;;;28.60;40.89;101676.16;5028687;28;20060;-64
2022/09/04 12:31:58;;;;;;;2.30;1.70;;;;;;;28.83;40.44;101687.88;5028653;28;20029;-65
2022/09/04 12:34:45;;;;;;;2.58;1.60;;;;;;;28.67;40.11;101687.47;5028592;28;20029;-65
2022/09/04 12:37:44;;;;;;;2.58;1.70;;;;;;;28.69;40.59;101678.53;5027867;28;20611;-64
2022/09/04 12:40:30;;;;;;;2.53;1.65;;;;;;;28.81;39.53;101685.25;5027936;28;20385;-65